Aeroporto :
LOGIN :

Iscrizione | Disclaimer

   EN    FR    IT 

 










Sommario :    VFR   VFR Marginale   IFR   IFR Intensivo   IFR Molto Intensivo
Visibilità : 
Base nubi : 
>= 8 km
>= 3000ft
5 / 8 km
1000 / 3000 ft
1500m / 5 km
500 / 1000 ft
800 / 1500m
200 / 500 ft
< 800m
< 200 ft
Simboli :   Temporali  Nebbia  Neve Forte  Precipitazioni Forti  Vento > 20 kt
SIGMETs :   Varie  Temporali  Ghiacco  Turbolenza  Onda orograficha  Ceneri Vulcaniche






- Altitudine del aeroporto : 194 ft
- Codice IATA : ANE


LFJR - Angers Marcé

ULTIMO METAR :
  • 232230Z AUTO 07001KT 0800 R26/0800D FG FEW003 08/08 Q1005

METARs OBSOLETI :
  • 232200Z AUTO 00000KT 1200 1000 R26/1300D BR SCT002 SCT006 09/09 Q1005
  • 232130Z AUTO 03001KT 0700 0600 R26/0700U FG VV/// 10/10 Q1005
  • 232100Z AUTO 00000KT 3100 1000 R26/1300D BR NSC 10/09 Q1005
  • 232030Z AUTO VRB01KT 3100 R26/1100U BR FEW001 10/09 Q1005
  • 232000Z AUTO 00000KT 7000 3000 NSC 12/11 Q1005

Previsioni scadute.



MetMap, La meteo Aeronautica in un colpo d'occhio ! - Copyright ORBIFLY Dicembre 2007 - Disclaimer

ORBIFLY MET'MAP TEAM :

Programmazione e sviluppo : Alexandra Zaïnal
Concezione e sviluppo : Baudouin d'Aumeries
Co-Programmazione e sviluppo : Marc-Olivier Méhu
Supporto tecnico e logistico : Manuel Goepfert
Aiuto per la traduzione : Arnaldo La Scala

Contatto : metmap@orbifly.com




FONTI E CREDITI :

   NOAA